Time,TemperatureF,DewpointF,PressureIn,WindDirection,WindDirectionDegrees,WindSpeedMPH,WindSpeedGustMPH,Humidity,HourlyPrecipIn,Conditions,Clouds,dailyrainin,SoftwareType,DateUTC
2013-05-01 06:45:00,71.5,69.7,29.95,NE,45,0.0,2.0,94,0.00,,,0.00,VWS V14.01,2013-05-01 10:45:00,
2013-05-01 07:02:00,71.5,69.7,29.95,NE,45,0.0,2.0,94,0.00,,,0.00,VWS V14.01,2013-05-01 11:02:00,
2013-05-01 07:07:00,72.0,70.5,29.97,NE,56,0.0,0.0,95,0.00,,,0.00,VWS V14.01,2013-05-01 11:07:00,
2013-05-01 07:12:00,72.2,70.7,29.96,NE,56,0.0,1.0,95,0.00,,,0.00,VWS V14.01,2013-05-01 11:12:00,
2013-05-01 07:17:00,72.4,70.9,29.97,NE,56,0.0,1.0,95,0.00,,,0.00,VWS V14.01,2013-05-01 11:17:00,
2013-05-01 07:22:00,72.6,71.1,29.97,NE,56,0.0,1.0,95,0.00,,,0.00,VWS V14.01,2013-05-01 11:22:00,
2013-05-01 07:27:00,73.0,71.5,29.97,ESE,117,4.0,5.0,95,0.00,,,0.00,VWS V14.01,2013-05-01 11:27:00,
2013-05-01 07:32:00,73.3,71.5,29.97,ESE,103,0.0,3.0,94,0.00,,,0.00,VWS V14.01,2013-05-01 11:32:00,
2013-05-01 07:37:00,73.6,71.8,29.98,ENE,68,0.0,4.0,94,0.00,,,0.00,VWS V14.01,2013-05-01 11:37:00,
2013-05-01 07:42:00,73.8,71.7,29.97,ESE,105,0.0,4.0,93,0.00,,,0.00,VWS V14.01,2013-05-01 11:42:00,
2013-05-01 07:47:00,73.9,71.4,29.98,ESE,104,0.0,1.0,92,0.00,,,0.00,VWS V14.01,2013-05-01 11:47:00,
2013-05-01 07:52:00,74.1,71.3,29.98,ESE,115,0.0,2.0,91,0.00,,,0.00,VWS V14.01,2013-05-01 11:52:00,
2013-05-01 07:57:00,74.3,71.5,29.97,ENE,60,0.0,2.0,91,0.00,,,0.00,VWS V14.01,2013-05-01 11:57:00,
2013-05-01 08:02:00,74.4,71.3,29.97,East,93,1.0,1.0,90,0.00,,,0.00,VWS V14.01,2013-05-01 12:02:00,
2013-05-01 08:07:00,74.5,71.1,29.97,NE,56,0.0,2.0,89,0.00,,,0.00,VWS V14.01,2013-05-01 12:07:00,
2013-05-01 08:12:00,74.6,70.8,29.97,NE,56,0.0,2.0,88,0.00,,,0.00,VWS V14.01,2013-05-01 12:12:00,
2013-05-01 08:17:00,74.8,71.0,29.97,NE,56,0.0,0.0,88,0.00,,,0.00,VWS V14.01,2013-05-01 12:17:00,
2013-05-01 08:22:00,74.9,71.1,29.97,NE,56,0.0,0.0,88,0.00,,,0.00,VWS V14.01,2013-05-01 12:22:00,
2013-05-01 08:27:00,75.2,71.4,29.97,NE,56,0.0,1.0,88,0.00,,,0.00,VWS V14.01,2013-05-01 12:27:00,
2013-05-01 08:32:00,75.4,71.6,29.97,NE,56,0.0,0.0,88,0.00,,,0.00,VWS V14.01,2013-05-01 12:32:00,
2013-05-01 08:37:00,75.7,71.9,29.97,ENE,71,1.0,1.0,88,0.00,,,0.00,VWS V14.01,2013-05-01 12:37:00,
2013-05-01 08:42:00,76.0,71.9,29.98,ENE,71,0.0,2.0,87,0.00,,,0.00,VWS V14.01,2013-05-01 12:42:00,
2013-05-01 08:47:00,76.2,72.1,29.97,ENE,72,0.0,2.0,87,0.00,,,0.00,VWS V14.01,2013-05-01 12:47:00,
2013-05-01 08:52:00,76.7,72.5,29.97,ENE,72,0.0,2.0,87,0.00,,,0.00,VWS V14.01,2013-05-01 12:52:00,
2013-05-01 08:57:00,77.4,73.2,29.97,SE,127,1.0,2.0,87,0.00,,,0.00,VWS V14.01,2013-05-01 12:57:00,
2013-05-01 09:02:00,77.9,73.0,29.98,SE,127,0.0,1.0,85,0.00,,,0.00,VWS V14.01,2013-05-01 13:02:00,
2013-05-01 09:07:00,78.4,73.2,29.97,ESE,111,2.0,2.0,84,0.00,,,0.00,VWS V14.01,2013-05-01 13:07:00,
2013-05-01 09:12:00,78.9,73.3,29.97,East,87,0.0,3.0,83,0.00,,,0.00,VWS V14.01,2013-05-01 13:12:00,
2013-05-01 09:17:00,79.6,73.6,29.97,East,92,0.0,1.0,82,0.00,,,0.00,VWS V14.01,2013-05-01 13:17:00,
2013-05-01 09:22:00,80.1,73.0,29.97,ESE,116,3.0,6.0,79,0.00,,,0.00,VWS V14.01,2013-05-01 13:22:00,
2013-05-01 09:27:00,80.7,72.8,29.97,East,100,0.0,6.0,77,0.00,,,0.00,VWS V14.01,2013-05-01 13:27:00,
2013-05-01 09:32:00,81.2,73.3,29.97,SE,134,2.0,3.0,77,0.00,,,0.00,VWS V14.01,2013-05-01 13:32:00,
2013-05-01 09:37:00,81.6,74.1,29.98,SE,126,2.0,5.0,78,0.00,,,0.00,VWS V14.01,2013-05-01 13:37:00,
2013-05-01 09:42:00,81.9,74.0,29.98,ESE,113,3.0,8.0,77,0.00,,,0.00,VWS V14.01,2013-05-01 13:42:00,
2013-05-01 09:47:00,82.2,74.3,29.98,SE,132,1.0,2.0,77,0.00,,,0.00,VWS V14.01,2013-05-01 13:47:00,
2013-05-01 09:52:00,82.4,74.1,29.99,ESE,113,3.0,6.0,76,0.00,,,0.00,VWS V14.01,2013-05-01 13:52:00,
2013-05-01 09:57:00,82.5,73.8,29.99,ESE,105,2.0,8.0,75,0.00,,,0.00,VWS V14.01,2013-05-01 13:57:00,
2013-05-01 10:02:00,82.6,74.3,30.00,ESE,119,2.0,3.0,76,0.00,,,0.00,VWS V14.01,2013-05-01 14:02:00,
2013-05-01 10:07:00,82.7,74.0,30.00,SE,128,2.0,8.0,75,0.00,,,0.00,VWS V14.01,2013-05-01 14:07:00,
2013-05-01 10:12:00,82.6,73.9,30.00,SE,126,3.0,8.0,75,0.00,,,0.00,VWS V14.01,2013-05-01 14:12:00,
2013-05-01 10:17:00,82.4,74.5,30.00,ESE,108,2.0,2.0,77,0.00,,,0.00,VWS V14.01,2013-05-01 14:17:00,
2013-05-01 10:22:00,82.7,74.4,30.00,ESE,114,4.0,8.0,76,0.00,,,0.00,VWS V14.01,2013-05-01 14:22:00,
2013-05-01 10:27:00,82.5,73.8,30.00,SE,137,0.0,8.0,75,0.00,,,0.00,VWS V14.01,2013-05-01 14:27:00,
2013-05-01 10:32:00,82.6,73.9,30.00,SSE,153,0.0,5.0,75,0.00,,,0.00,VWS V14.01,2013-05-01 14:32:00,
2013-05-01 10:37:00,82.9,73.8,30.00,ESE,107,0.0,5.0,74,0.00,,,0.00,VWS V14.01,2013-05-01 14:37:00,
2013-05-01 10:42:00,83.3,73.8,30.00,East,96,1.0,5.0,73,0.00,,,0.00,VWS V14.01,2013-05-01 14:42:00,
2013-05-01 10:47:00,84.0,74.0,30.00,North,350,2.0,4.0,72,0.00,,,0.00,VWS V14.01,2013-05-01 14:47:00,
2013-05-01 10:52:00,85.2,74.3,29.99,SSE,163,0.0,7.0,70,0.00,,,0.00,VWS V14.01,2013-05-01 14:52:00,
2013-05-01 10:57:00,85.7,73.9,29.99,ENE,75,0.0,7.0,68,0.00,,,0.00,VWS V14.01,2013-05-01 14:57:00,
2013-05-01 11:02:00,85.5,73.7,29.99,ESE,102,0.0,3.0,68,0.00,,,0.00,VWS V14.01,2013-05-01 15:02:00,
2013-05-01 11:07:00,85.5,74.2,30.00,ESE,123,2.0,5.0,69,0.00,,,0.00,VWS V14.01,2013-05-01 15:07:00,
2013-05-01 11:12:00,85.2,73.9,30.00,East,87,2.0,7.0,69,0.00,,,0.00,VWS V14.01,2013-05-01 15:12:00,
2013-05-01 11:17:00,85.4,74.1,30.00,SE,137,1.0,2.0,69,0.00,,,0.00,VWS V14.01,2013-05-01 15:17:00,
2013-05-01 11:22:00,85.0,73.3,30.00,East,82,0.0,5.0,68,0.00,,,0.00,VWS V14.01,2013-05-01 15:22:00,
2013-05-01 11:27:00,85.4,73.6,30.00,East,88,3.0,5.0,68,0.00,,,0.00,VWS V14.01,2013-05-01 15:27:00,
2013-05-01 11:32:00,86.1,73.9,30.00,ESE,103,3.0,5.0,67,0.00,,,0.00,VWS V14.01,2013-05-01 15:32:00,
2013-05-01 11:37:00,86.5,73.8,30.00,East,83,1.0,9.0,66,0.00,,,0.00,VWS V14.01,2013-05-01 15:37:00,
2013-05-01 11:42:00,86.5,73.8,30.00,East,96,2.0,9.0,66,0.00,,,0.00,VWS V14.01,2013-05-01 15:42:00,
2013-05-01 11:47:00,86.1,72.5,29.99,East,79,2.0,9.0,64,0.00,,,0.00,VWS V14.01,2013-05-01 15:47:00,
2013-05-01 11:52:00,86.3,72.7,29.99,East,84,1.0,9.0,64,0.00,,,0.00,VWS V14.01,2013-05-01 15:52:00,
2013-05-01 11:57:00,86.9,73.3,29.99,East,86,0.0,9.0,64,0.00,,,0.00,VWS V14.01,2013-05-01 15:57:00,
2013-05-01 12:02:00,88.0,73.8,29.99,ENE,70,0.0,3.0,63,0.00,,,0.00,VWS V14.01,2013-05-01 16:02:00,
2013-05-01 12:07:00,88.4,73.2,29.99,NE,53,1.0,7.0,61,0.00,,,0.00,VWS V14.01,2013-05-01 16:07:00,
2013-05-01 12:12:00,88.9,73.2,29.98,ESE,107,0.0,7.0,60,0.00,,,0.00,VWS V14.01,2013-05-01 16:12:00,
2013-05-01 12:17:00,88.2,72.6,29.98,ENE,58,1.0,8.0,60,0.00,,,0.00,VWS V14.01,2013-05-01 16:17:00,
2013-05-01 12:22:00,87.8,71.2,29.98,SSE,159,3.0,8.0,58,0.00,,,0.00,VWS V14.01,2013-05-01 16:22:00,
2013-05-01 12:27:00,87.3,71.7,29.97,SE,130,3.0,9.0,60,0.00,,,0.00,VWS V14.01,2013-05-01 16:27:00,
2013-05-01 12:32:00,88.1,73.0,29.97,East,88,2.0,5.0,61,0.00,,,0.00,VWS V14.01,2013-05-01 16:32:00,
2013-05-01 12:37:00,88.4,73.2,29.97,ENE,76,3.0,8.0,61,0.00,,,0.00,VWS V14.01,2013-05-01 16:37:00,
2013-05-01 12:42:00,87.9,73.3,29.97,ESE,119,2.0,8.0,62,0.00,,,0.00,VWS V14.01,2013-05-01 16:42:00,
2013-05-01 12:47:00,87.7,73.6,29.98,ENE,67,4.0,4.0,63,0.00,,,0.00,VWS V14.01,2013-05-01 16:47:00,
2013-05-01 12:52:00,87.9,73.3,29.98,South,171,6.0,7.0,62,0.00,,,0.00,VWS V14.01,2013-05-01 16:52:00,
2013-05-01 12:57:00,86.4,73.2,29.97,SSE,157,6.0,8.0,65,0.00,,,0.00,VWS V14.01,2013-05-01 16:57:00,
2013-05-01 13:02:00,86.1,73.0,29.97,SE,139,1.0,9.0,65,0.00,,,0.00,VWS V14.01,2013-05-01 17:02:00,
2013-05-01 13:07:00,87.1,73.9,29.97,ESE,115,2.0,9.0,65,0.00,,,0.00,VWS V14.01,2013-05-01 17:07:00,
2013-05-01 13:12:00,87.4,73.7,29.97,ESE,117,1.0,9.0,64,0.00,,,0.00,VWS V14.01,2013-05-01 17:12:00,
2013-05-01 13:17:00,87.3,73.6,29.97,East,94,3.0,7.0,64,0.00,,,0.00,VWS V14.01,2013-05-01 17:17:00,
2013-05-01 13:22:00,87.3,73.6,29.96,East,97,5.0,8.0,64,0.00,,,0.00,VWS V14.01,2013-05-01 17:22:00,
2013-05-01 13:27:00,87.5,73.8,29.96,SE,128,2.0,8.0,64,0.00,,,0.00,VWS V14.01,2013-05-01 17:27:00,
2013-05-01 13:32:00,87.7,73.6,29.95,SW,226,1.0,5.0,63,0.00,,,0.00,VWS V14.01,2013-05-01 17:32:00,
2013-05-01 13:37:00,88.0,73.8,29.95,NE,44,5.0,7.0,63,0.00,,,0.00,VWS V14.01,2013-05-01 17:37:00,
2013-05-01 13:42:00,88.7,73.5,29.94,NE,50,7.0,7.0,61,0.00,,,0.00,VWS V14.01,2013-05-01 17:42:00,
2013-05-01 13:47:00,88.6,73.4,29.94,SE,126,4.0,8.0,61,0.00,,,0.00,VWS V14.01,2013-05-01 17:47:00,
2013-05-01 13:52:00,88.6,73.4,29.94,East,84,0.0,9.0,61,0.00,,,0.00,VWS V14.01,2013-05-01 17:52:00,
2013-05-01 13:57:00,88.3,73.6,29.95,ESE,111,4.0,12.0,62,0.00,,,0.00,VWS V14.01,2013-05-01 17:57:00,
2013-05-01 14:02:00,88.0,73.4,29.95,East,101,1.0,7.0,62,0.00,,,0.00,VWS V14.01,2013-05-01 18:02:00,
2013-05-01 14:07:00,88.3,73.6,29.95,ENE,57,0.0,8.0,62,0.00,,,0.00,VWS V14.01,2013-05-01 18:07:00,
2013-05-01 14:12:00,88.2,73.1,29.95,NE,53,4.0,10.0,61,0.00,,,0.00,VWS V14.01,2013-05-01 18:12:00,
2013-05-01 14:17:00,87.3,73.2,29.95,East,98,3.0,6.0,63,0.00,,,0.00,VWS V14.01,2013-05-01 18:17:00,
2013-05-01 14:22:00,87.0,72.9,29.95,ESE,105,7.0,8.0,63,0.00,,,0.00,VWS V14.01,2013-05-01 18:22:00,
2013-05-01 14:27:00,85.9,72.8,29.95,ESE,107,2.0,9.0,65,0.00,,,0.00,VWS V14.01,2013-05-01 18:27:00,
2013-05-01 14:32:00,85.9,73.2,29.95,East,87,6.0,7.0,66,0.00,,,0.00,VWS V14.01,2013-05-01 18:32:00,
2013-05-01 14:37:00,86.1,73.0,29.95,SE,134,0.0,7.0,65,0.00,,,0.00,VWS V14.01,2013-05-01 18:37:00,
2013-05-01 14:42:00,85.4,73.2,29.94,ESE,118,4.0,12.0,67,0.00,,,0.00,VWS V14.01,2013-05-01 18:42:00,
2013-05-01 14:47:00,84.7,73.4,29.95,East,82,10.0,11.0,69,0.00,,,0.00,VWS V14.01,2013-05-01 18:47:00,
2013-05-01 14:52:00,84.3,73.0,29.95,SSE,150,7.0,11.0,69,0.00,,,0.00,VWS V14.01,2013-05-01 18:52:00,
2013-05-01 14:57:00,83.9,73.1,29.95,ENE,76,0.0,11.0,70,0.00,,,0.00,VWS V14.01,2013-05-01 18:57:00,
2013-05-01 15:02:00,83.9,73.5,29.95,ENE,77,2.0,5.0,71,0.00,,,0.00,VWS V14.01,2013-05-01 19:02:00,
2013-05-01 15:07:00,83.4,73.4,29.95,ESE,109,5.0,10.0,72,0.00,,,0.00,VWS V14.01,2013-05-01 19:07:00,
2013-05-01 15:12:00,83.0,73.5,29.95,SE,130,1.0,10.0,73,0.00,,,0.00,VWS V14.01,2013-05-01 19:12:00,
2013-05-01 15:17:00,82.5,73.0,29.95,SSE,165,1.0,9.0,73,0.00,,,0.00,VWS V14.01,2013-05-01 19:17:00,
2013-05-01 15:22:00,82.2,73.9,29.95,ENE,65,0.0,10.0,76,0.00,,,0.00,VWS V14.01,2013-05-01 19:22:00,
2013-05-01 15:27:00,81.4,73.9,29.95,ESE,108,0.0,10.0,78,0.00,,,0.00,VWS V14.01,2013-05-01 19:27:00,
2013-05-01 15:32:00,80.7,74.0,29.95,SE,142,5.0,10.0,80,0.00,,,0.00,VWS V14.01,2013-05-01 19:32:00,
2013-05-01 15:37:00,80.3,74.3,29.95,ESE,108,0.0,10.0,82,0.01,,,0.01,VWS V14.01,2013-05-01 19:37:00,
2013-05-01 15:42:00,80.0,74.0,29.94,East,94,2.0,10.0,82,0.01,,,0.01,VWS V14.01,2013-05-01 19:42:00,
2013-05-01 15:47:00,79.7,74.1,29.94,ESE,119,7.0,7.0,83,0.01,,,0.01,VWS V14.01,2013-05-01 19:47:00,
2013-05-01 15:51:00,79.5,74.6,29.94,East,90,0.0,7.0,85,0.02,,,0.02,VWS V14.01,2013-05-01 19:51:00,
2013-05-01 15:56:00,79.3,74.4,29.94,ESE,123,0.0,7.0,85,0.02,,,0.02,VWS V14.01,2013-05-01 19:56:00,
2013-05-01 16:01:00,79.2,74.7,29.95,ESE,122,0.0,0.0,86,0.03,,,0.03,VWS V14.01,2013-05-01 20:01:00,
2013-05-01 16:06:00,79.0,74.5,29.95,ESE,122,1.0,2.0,86,0.04,,,0.04,VWS V14.01,2013-05-01 20:06:00,
2013-05-01 16:11:00,78.7,74.5,29.96,South,175,2.0,3.0,87,0.05,,,0.05,VWS V14.01,2013-05-01 20:11:00,
2013-05-01 16:16:00,78.5,74.7,29.95,South,185,3.0,3.0,88,0.06,,,0.06,VWS V14.01,2013-05-01 20:16:00,
2013-05-01 16:21:00,78.2,74.7,29.95,SW,234,12.0,12.0,89,0.06,,,0.06,VWS V14.01,2013-05-01 20:21:00,
2013-05-01 16:26:00,75.3,71.5,29.95,West,278,8.0,13.0,88,0.07,,,0.07,VWS V14.01,2013-05-01 20:26:00,
2013-05-01 16:31:00,73.8,70.7,29.96,WNW,290,4.0,13.0,90,0.07,,,0.07,VWS V14.01,2013-05-01 20:31:00,
2013-05-01 16:36:00,73.4,70.6,29.96,WSW,243,7.0,13.0,91,0.07,,,0.07,VWS V14.01,2013-05-01 20:36:00,
2013-05-01 16:41:00,73.1,70.3,29.97,WSW,244,10.0,15.0,91,0.07,,,0.07,VWS V14.01,2013-05-01 20:41:00,
2013-05-01 16:46:00,72.6,69.5,29.97,WSW,257,10.0,11.0,90,0.06,,,0.07,VWS V14.01,2013-05-01 20:46:00,
2013-05-01 16:51:00,72.0,68.9,29.96,West,262,8.0,15.0,90,0.07,,,0.08,VWS V14.01,2013-05-01 20:51:00,
2013-05-01 16:56:00,71.7,68.9,29.96,WNW,296,3.0,15.0,91,0.08,,,0.09,VWS V14.01,2013-05-01 20:56:00,
2013-05-01 17:01:00,71.6,68.8,29.95,NW,312,3.0,4.0,91,0.07,,,0.10,VWS V14.01,2013-05-01 21:01:00,
2013-05-01 17:06:00,71.6,69.2,29.94,NNW,332,0.0,4.0,92,0.08,,,0.11,VWS V14.01,2013-05-01 21:06:00,
2013-05-01 17:11:00,71.9,69.4,29.93,East,80,0.0,4.0,92,0.09,,,0.12,VWS V14.01,2013-05-01 21:11:00,
2013-05-01 17:16:00,72.0,69.6,29.92,ENE,57,0.0,1.0,92,0.07,,,0.13,VWS V14.01,2013-05-01 21:16:00,
2013-05-01 17:21:00,71.9,69.8,29.92,NE,47,3.0,3.0,93,0.09,,,0.15,VWS V14.01,2013-05-01 21:21:00,
2013-05-01 17:26:00,71.9,69.8,29.92,NE,52,2.0,4.0,93,0.10,,,0.16,VWS V14.01,2013-05-01 21:26:00,
2013-05-01 17:31:00,71.8,69.7,29.91,ENE,69,2.0,4.0,93,0.10,,,0.17,VWS V14.01,2013-05-01 21:31:00,
2013-05-01 17:36:00,71.8,70.0,29.93,NNW,338,4.0,5.0,94,0.12,,,0.19,VWS V14.01,2013-05-01 21:36:00,
2013-05-01 17:41:00,71.7,69.9,29.93,North,355,6.0,6.0,94,0.13,,,0.20,VWS V14.01,2013-05-01 21:41:00,
2013-05-01 17:46:00,71.7,69.9,29.93,WNW,297,5.0,8.0,94,0.14,,,0.21,VWS V14.01,2013-05-01 21:46:00,
2013-05-01 17:51:00,71.9,70.1,29.93,NW,325,6.0,8.0,94,0.14,,,0.21,VWS V14.01,2013-05-01 21:51:00,
2013-05-01 17:56:00,72.2,70.4,29.94,NW,323,4.0,8.0,94,0.14,,,0.21,VWS V14.01,2013-05-01 21:56:00,
2013-05-01 18:01:00,72.5,70.7,29.94,WNW,299,0.0,3.0,94,0.12,,,0.21,VWS V14.01,2013-05-01 22:01:00,
2013-05-01 18:06:00,72.7,70.9,29.95,NW,326,1.0,3.0,94,0.12,,,0.21,VWS V14.01,2013-05-01 22:06:00,
2013-05-01 18:11:00,72.9,71.1,29.95,NNE,30,0.0,4.0,94,0.12,,,0.21,VWS V14.01,2013-05-01 22:11:00,
2013-05-01 18:16:00,73.1,71.3,29.95,ENE,59,0.0,1.0,94,0.08,,,0.21,VWS V14.01,2013-05-01 22:16:00,
2013-05-01 18:21:00,73.3,71.5,29.95,NE,46,1.0,3.0,94,0.08,,,0.21,VWS V14.01,2013-05-01 22:21:00,
2013-05-01 18:26:00,73.4,71.6,29.96,NE,49,0.0,5.0,94,0.08,,,0.21,VWS V14.01,2013-05-01 22:26:00,
2013-05-01 18:31:00,73.7,71.9,29.96,NE,45,1.0,2.0,94,0.04,,,0.21,VWS V14.01,2013-05-01 22:31:00,
2013-05-01 18:36:00,73.8,72.0,29.96,East,86,2.0,9.0,94,0.04,,,0.21,VWS V14.01,2013-05-01 22:36:00,
2013-05-01 18:41:00,73.6,71.5,29.96,East,92,1.0,9.0,93,0.04,,,0.21,VWS V14.01,2013-05-01 22:41:00,
2013-05-01 18:46:00,73.2,71.1,29.96,ENE,60,0.0,1.0,93,0.00,,,0.21,VWS V14.01,2013-05-01 22:46:00,
2013-05-01 18:51:00,73.1,71.0,29.96,ESE,102,1.0,3.0,93,0.00,,,0.21,VWS V14.01,2013-05-01 22:51:00,
2013-05-01 18:56:00,73.0,70.9,29.96,ENE,61,1.0,4.0,93,0.00,,,0.21,VWS V14.01,2013-05-01 22:56:00,
2013-05-01 19:01:00,72.9,70.8,29.96,East,85,0.0,0.0,93,0.00,,,0.21,VWS V14.01,2013-05-01 23:01:00,
2013-05-01 19:06:00,72.8,70.7,29.96,East,89,0.0,1.0,93,0.00,,,0.21,VWS V14.01,2013-05-01 23:06:00,
2013-05-01 19:11:00,72.8,70.3,29.96,East,81,1.0,3.0,92,0.00,,,0.21,VWS V14.01,2013-05-01 23:11:00,
2013-05-01 19:16:00,72.7,70.2,29.95,ESE,112,0.0,1.0,92,0.00,,,0.21,VWS V14.01,2013-05-01 23:16:00,
2013-05-01 19:21:00,72.7,70.2,29.95,ESE,117,1.0,2.0,92,0.00,,,0.21,VWS V14.01,2013-05-01 23:21:00,
2013-05-01 19:26:00,72.7,70.2,29.94,NE,48,0.0,2.0,92,0.00,,,0.21,VWS V14.01,2013-05-01 23:26:00,
2013-05-01 19:31:00,72.6,70.2,29.95,NE,48,0.0,0.0,92,0.00,,,0.21,VWS V14.01,2013-05-01 23:31:00,
2013-05-01 19:36:00,72.6,70.2,29.95,ENE,77,0.0,2.0,92,0.00,,,0.21,VWS V14.01,2013-05-01 23:36:00,
2013-05-01 19:41:00,72.6,70.2,29.95,ENE,59,2.0,2.0,92,0.00,,,0.21,VWS V14.01,2013-05-01 23:41:00,
2013-05-01 19:46:00,72.6,70.2,29.96,ENE,59,1.0,1.0,92,0.00,,,0.21,VWS V14.01,2013-05-01 23:46:00,
2013-05-01 19:51:00,72.7,70.2,29.96,ENE,59,0.0,2.0,92,0.00,,,0.21,VWS V14.01,2013-05-01 23:51:00,
2013-05-01 19:56:00,72.8,70.3,29.96,NNE,21,3.0,5.0,92,0.00,,,0.21,VWS V14.01,2013-05-01 23:56:00,
2013-05-01 20:01:00,72.9,70.4,29.96,NNE,14,3.0,4.0,92,0.00,,,0.21,VWS V14.01,2013-05-02 00:01:00,
2013-05-01 20:06:00,73.1,70.6,29.96,NNW,348,4.0,4.0,92,0.00,,,0.21,VWS V14.01,2013-05-02 00:06:00,
2013-05-01 20:11:00,73.3,70.8,29.95,NE,34,2.0,6.0,92,0.00,,,0.21,VWS V14.01,2013-05-02 00:11:00,